createdAt,value
2017-12-26T00:00:14.486Z,11.35
2017-12-26T00:01:17.764Z,10.50
2017-12-26T00:02:20.602Z,12.52
2017-12-26T00:03:23.139Z,11.00
2017-12-26T00:04:25.658Z,11.68
2017-12-26T00:05:28.175Z,9.30
2017-12-26T00:06:30.732Z,12.27
2017-12-26T00:07:33.266Z,12.98
2017-12-26T00:08:35.790Z,12.45
2017-12-26T00:09:38.311Z,11.65
2017-12-26T00:10:41.600Z,14.07
2017-12-26T00:11:44.931Z,10.60
2017-12-26T00:12:47.453Z,10.15
2017-12-26T00:13:50.733Z,12.18
2017-12-26T00:14:54.021Z,15.02
2017-12-26T00:17:07.159Z,9.75
2017-12-26T00:18:09.870Z,9.32
2017-12-26T00:19:13.303Z,10.73
2017-12-26T00:20:15.840Z,10.63
2017-12-26T00:21:18.471Z,10.95
2017-12-26T00:22:21.113Z,8.23
2017-12-26T00:23:23.625Z,9.60
2017-12-26T00:24:26.148Z,10.85
2017-12-26T00:25:28.665Z,10.35
2017-12-26T00:26:31.973Z,10.38
2017-12-26T00:27:35.387Z,11.60
2017-12-26T00:28:37.905Z,11.18
2017-12-26T00:29:41.210Z,12.13
2017-12-26T00:30:44.501Z,10.50
2017-12-26T00:31:47.785Z,11.93
2017-12-26T00:32:51.101Z,12.77
2017-12-26T00:33:53.626Z,10.23
2017-12-26T00:34:56.950Z,9.93
2017-12-26T00:35:59.460Z,12.05
2017-12-26T00:37:02.017Z,9.90
2017-12-26T00:38:04.538Z,10.00
2017-12-26T00:39:07.055Z,11.85
2017-12-26T00:40:09.584Z,11.27
2017-12-26T00:41:12.157Z,10.02
2017-12-26T00:42:14.713Z,9.68
2017-12-26T00:43:17.230Z,11.45
2017-12-26T00:44:20.662Z,9.82
2017-12-26T00:45:23.198Z,11.43
2017-12-26T00:46:25.912Z,12.05
2017-12-26T00:47:28.616Z,11.57
2017-12-26T00:48:31.140Z,10.82
2017-12-26T00:49:33.657Z,12.68
2017-12-26T00:50:37.086Z,11.80
2017-12-26T00:51:39.597Z,10.85
2017-12-26T00:52:42.154Z,11.32
2017-12-26T00:53:44.706Z,10.32
2017-12-26T00:54:47.226Z,9.70
2017-12-26T00:55:50.506Z,9.90
2017-12-26T00:56:53.787Z,12.40
2017-12-26T00:57:57.075Z,10.82
2017-12-26T00:59:00.453Z,12.60
2017-12-26T01:00:03.797Z,11.40
2017-12-26T01:01:06.317Z,8.65
2017-12-26T01:02:08.837Z,10.15
2017-12-26T01:03:11.358Z,9.77
2017-12-26T01:04:13.873Z,12.90
2017-12-26T01:05:16.437Z,8.90
2017-12-26T01:06:19.060Z,10.25
2017-12-26T01:07:21.569Z,11.32
2017-12-26T01:08:24.273Z,11.55
2017-12-26T01:09:26.815Z,10.65
2017-12-26T01:10:29.349Z,11.60
2017-12-26T01:11:31.865Z,12.40
2017-12-26T01:12:35.194Z,10.30
2017-12-26T01:13:37.709Z,10.25
2017-12-26T01:14:40.324Z,11.55
2017-12-26T01:15:42.837Z,9.73
2017-12-26T01:16:45.364Z,13.98
2017-12-26T01:17:47.969Z,11.18
2017-12-26T01:18:50.489Z,11.23
2017-12-26T01:19:53.091Z,12.68
2017-12-26T01:20:55.650Z,11.43
2017-12-26T01:21:58.164Z,12.50
2017-12-26T01:23:00.686Z,12.20
2017-12-26T01:24:03.213Z,10.73
2017-12-26T01:25:05.776Z,11.85
2017-12-26T01:26:08.309Z,12.07
2017-12-26T01:27:11.623Z,11.85
2017-12-26T01:28:14.169Z,13.68
2017-12-26T01:29:17.454Z,13.43
2017-12-26T01:30:20.807Z,10.85
2017-12-26T01:31:23.334Z,12.20
2017-12-26T01:32:25.854Z,13.25
2017-12-26T01:33:29.138Z,12.00
2017-12-26T01:34:31.661Z,12.07
2017-12-26T01:35:34.229Z,12.68
2017-12-26T01:36:36.753Z,11.85
2017-12-26T01:37:40.043Z,12.60
2017-12-26T01:38:42.590Z,10.07
2017-12-26T01:39:45.134Z,11.27
2017-12-26T01:40:47.685Z,11.05
2017-12-26T01:41:50.206Z,14.38
2017-12-26T01:42:52.741Z,12.05
2017-12-26T01:43:55.257Z,11.27
2017-12-26T01:44:57.774Z,10.40
2017-12-26T01:46:01.937Z,10.13
2017-12-26T01:47:04.459Z,15.13
2017-12-26T01:48:07.773Z,12.25
2017-12-26T01:49:10.305Z,10.05
2017-12-26T01:50:13.592Z,9.57
2017-12-26T01:51:16.875Z,12.80
2017-12-26T01:52:20.159Z,12.52
2017-12-26T01:53:23.466Z,12.15
2017-12-26T01:54:25.993Z,12.20
2017-12-26T01:55:28.513Z,11.95
2017-12-26T01:56:31.029Z,13.88
2017-12-26T01:57:33.546Z,13.18
2017-12-26T01:58:36.114Z,10.93
2017-12-26T01:59:38.640Z,13.60
2017-12-26T02:00:41.929Z,10.85
2017-12-26T02:01:45.317Z,15.23
2017-12-26T02:02:48.592Z,13.00
2017-12-26T02:03:51.917Z,12.57
2017-12-26T02:04:54.429Z,12.68
2017-12-26T02:05:56.996Z,14.35
2017-12-26T02:06:59.530Z,14.80
2017-12-26T02:08:02.826Z,13.82
2017-12-26T02:09:05.351Z,13.32
2017-12-26T02:10:07.919Z,16.12
2017-12-26T02:11:10.469Z,13.32
2017-12-26T02:12:13.767Z,12.52
2017-12-26T02:13:16.290Z,12.43
2017-12-26T02:14:18.841Z,14.13
2017-12-26T02:15:21.388Z,9.48
2017-12-26T02:16:23.924Z,11.80
2017-12-26T02:17:26.450Z,13.52
2017-12-26T02:18:28.961Z,12.60
2017-12-26T02:19:31.476Z,11.65
2017-12-26T02:20:34.037Z,14.20
2017-12-26T02:21:37.325Z,13.55
2017-12-26T02:22:39.833Z,14.32
2017-12-26T02:23:42.364Z,12.85
2017-12-26T02:24:44.886Z,14.10
2017-12-26T02:25:47.441Z,13.45
2017-12-26T02:26:49.968Z,14.48
2017-12-26T02:27:52.482Z,11.50
2017-12-26T02:28:55.001Z,13.45
2017-12-26T02:29:57.549Z,12.85
2017-12-26T02:31:00.102Z,12.85
2017-12-26T02:32:02.667Z,13.45
2017-12-26T02:33:05.219Z,14.90
2017-12-26T02:34:07.779Z,15.23
2017-12-26T02:35:10.292Z,14.98
2017-12-26T02:36:12.805Z,12.93
2017-12-26T02:37:15.342Z,12.43
2017-12-26T02:38:18.665Z,15.15
2017-12-26T02:39:21.185Z,13.90
2017-12-26T02:40:24.479Z,14.10
2017-12-26T02:41:27.766Z,16.25
2017-12-26T02:42:31.050Z,15.00
2017-12-26T02:43:34.379Z,13.35
2017-12-26T02:44:36.893Z,13.05
2017-12-26T02:45:40.177Z,14.80
2017-12-26T02:46:43.468Z,14.45
2017-12-26T02:47:46.760Z,16.15
2017-12-26T02:48:49.338Z,15.93
2017-12-26T02:49:51.906Z,15.05
2017-12-26T02:50:54.422Z,13.62
2017-12-26T02:51:56.939Z,14.95
2017-12-26T02:52:59.458Z,12.40
2017-12-26T02:54:02.014Z,14.50
2017-12-26T02:55:04.711Z,13.10
2017-12-26T02:56:07.251Z,14.75
2017-12-26T02:57:09.775Z,13.88
2017-12-26T02:58:12.284Z,13.45
2017-12-26T02:59:14.834Z,15.20
2017-12-26T03:00:17.353Z,12.00
2017-12-26T03:01:19.910Z,12.93
2017-12-26T03:02:23.202Z,16.12
2017-12-26T03:03:26.508Z,13.90
2017-12-26T03:04:29.027Z,13.52
2017-12-26T03:05:31.658Z,16.50
2017-12-26T03:06:34.215Z,18.25
2017-12-26T03:07:36.728Z,14.13
2017-12-26T03:08:39.248Z,16.33
2017-12-26T03:09:41.749Z,14.07
2017-12-26T03:10:44.366Z,14.45
2017-12-26T03:11:46.925Z,13.93
2017-12-26T03:12:49.789Z,14.15
2017-12-26T03:13:53.073Z,12.90
2017-12-26T03:14:55.614Z,14.52
2017-12-26T03:15:58.161Z,19.45
2017-12-26T03:17:00.708Z,13.75
2017-12-26T03:18:03.225Z,15.52
2017-12-26T03:19:06.619Z,15.02
2017-12-26T03:20:09.908Z,15.18
2017-12-26T03:21:12.431Z,12.75
2017-12-26T03:22:14.997Z,15.27
2017-12-26T03:23:17.529Z,13.27
2017-12-26T03:24:20.038Z,15.25
2017-12-26T03:25:22.557Z,13.35
2017-12-26T03:26:25.070Z,13.95
2017-12-26T03:27:27.622Z,14.20
2017-12-26T03:28:30.190Z,14.20
2017-12-26T03:29:32.729Z,14.63
2017-12-26T03:30:35.245Z,12.15
2017-12-26T03:31:37.760Z,12.30
2017-12-26T03:32:40.276Z,16.67
2017-12-26T03:33:42.833Z,14.32
2017-12-26T03:34:45.353Z,16.30
2017-12-26T03:35:47.914Z,16.30
2017-12-26T03:36:50.426Z,12.50
2017-12-26T03:37:52.954Z,14.95
2017-12-26T03:38:55.526Z,15.43
2017-12-26T03:39:58.049Z,18.92
2017-12-26T03:41:01.386Z,15.85
2017-12-26T03:42:03.921Z,14.98
2017-12-26T03:43:06.532Z,15.32
2017-12-26T03:44:09.057Z,16.87
2017-12-26T03:45:11.592Z,15.85
2017-12-26T03:46:14.928Z,13.15
2017-12-26T03:47:17.454Z,14.75
2017-12-26T03:48:20.762Z,16.30
2017-12-26T03:49:23.282Z,14.77
2017-12-26T03:50:25.802Z,13.00
2017-12-26T03:51:28.349Z,14.48
2017-12-26T03:52:30.860Z,12.40
2017-12-26T03:53:33.410Z,12.32
2017-12-26T03:54:35.930Z,14.38
2017-12-26T03:55:39.221Z,13.23
2017-12-26T03:56:42.551Z,14.70
2017-12-26T03:57:45.073Z,14.32
2017-12-26T03:58:48.365Z,14.23
2017-12-26T03:59:50.889Z,14.73
2017-12-26T04:00:53.405Z,14.80
2017-12-26T04:01:55.972Z,15.30
2017-12-26T04:02:58.547Z,13.32
2017-12-26T04:04:01.075Z,14.87
2017-12-26T04:05:04.352Z,14.13
2017-12-26T04:06:06.869Z,14.15
2017-12-26T04:07:09.432Z,13.45
2017-12-26T04:08:11.961Z,16.67
2017-12-26T04:09:15.272Z,16.33
2017-12-26T04:10:17.821Z,17.25
2017-12-26T04:11:21.105Z,16.25
2017-12-26T04:12:24.405Z,15.45
2017-12-26T04:13:26.924Z,17.23
2017-12-26T04:14:29.481Z,16.08
2017-12-26T04:15:32.005Z,17.37
2017-12-26T04:16:34.527Z,16.37
2017-12-26T04:17:37.048Z,17.25
2017-12-26T04:18:39.561Z,17.75
2017-12-26T04:19:42.116Z,18.15
2017-12-26T04:20:44.677Z,13.55
2017-12-26T04:21:47.205Z,18.60
2017-12-26T04:22:49.717Z,18.77
2017-12-26T04:23:52.238Z,16.42
2017-12-26T04:24:54.753Z,16.85
2017-12-26T04:25:57.325Z,17.85
2017-12-26T04:26:59.838Z,17.90
2017-12-26T04:28:02.350Z,19.02
2017-12-26T04:29:04.878Z,19.02
2017-12-26T04:30:07.404Z,15.98
2017-12-26T04:31:10.721Z,18.10
2017-12-26T04:32:13.232Z,18.33
2017-12-26T04:33:15.769Z,21.20
2017-12-26T04:34:19.062Z,18.83
2017-12-26T04:35:21.616Z,17.52
2017-12-26T04:36:24.141Z,20.70
2017-12-26T04:37:27.435Z,19.62
2017-12-26T04:38:29.951Z,16.90
2017-12-26T04:39:32.494Z,16.33
2017-12-26T04:40:35.042Z,17.95
2017-12-26T04:41:37.604Z,17.00
2017-12-26T04:42:40.130Z,17.08
2017-12-26T04:43:42.650Z,16.87
2017-12-26T04:44:45.164Z,16.77
2017-12-26T04:45:48.448Z,18.10
2017-12-26T04:46:51.013Z,15.50
2017-12-26T04:47:53.533Z,16.50
2017-12-26T04:48:56.045Z,16.35
2017-12-26T04:49:58.569Z,17.52
2017-12-26T04:51:01.089Z,16.00
2017-12-26T04:52:04.416Z,16.83
2017-12-26T04:53:06.931Z,16.37
2017-12-26T04:54:10.265Z,17.08
2017-12-26T04:55:12.811Z,17.23
2017-12-26T04:56:15.344Z,19.12
2017-12-26T04:57:17.862Z,21.65
2017-12-26T04:58:20.381Z,17.08
2017-12-26T04:59:23.700Z,18.33
2017-12-26T05:00:26.214Z,18.25
2017-12-26T05:01:28.752Z,18.30
2017-12-26T05:02:31.277Z,16.75
2017-12-26T05:03:34.573Z,19.67
2017-12-26T05:04:37.124Z,18.67
2017-12-26T05:05:40.419Z,17.37
2017-12-26T05:06:42.940Z,18.05
2017-12-26T05:07:45.469Z,18.50
2017-12-26T05:08:47.983Z,20.15
2017-12-26T05:09:50.546Z,22.83
2017-12-26T05:10:53.069Z,16.30
2017-12-26T05:11:55.586Z,18.27
2017-12-26T05:12:58.105Z,19.80
2017-12-26T05:14:00.687Z,17.37
2017-12-26T05:15:03.213Z,20.17
2017-12-26T05:16:05.734Z,17.92
2017-12-26T05:17:08.254Z,19.58
2017-12-26T05:18:10.819Z,18.62
2017-12-26T05:19:13.334Z,15.90
2017-12-26T05:20:15.857Z,17.50
2017-12-26T05:21:18.400Z,19.15
2017-12-26T05:22:21.682Z,15.13
2017-12-26T05:23:24.969Z,18.80
2017-12-26T05:24:28.289Z,18.73
2017-12-26T05:25:30.813Z,18.60
2017-12-26T05:26:34.152Z,18.92
2017-12-26T05:27:36.674Z,18.33
2017-12-26T05:28:39.220Z,22.25
2017-12-26T05:29:42.517Z,17.40
2017-12-26T05:30:45.810Z,21.52
2017-12-26T05:31:48.384Z,19.80
2017-12-26T05:32:51.457Z,16.73
2017-12-26T05:33:53.974Z,18.85
2017-12-26T05:34:56.493Z,18.48
2017-12-26T05:35:59.019Z,17.92
2017-12-26T05:37:01.602Z,17.20
2017-12-26T05:38:04.891Z,17.55
2017-12-26T05:39:08.177Z,18.58
2017-12-26T05:40:11.463Z,20.25
2017-12-26T05:41:14.762Z,19.42
2017-12-26T05:42:17.322Z,19.45
2017-12-26T05:43:19.844Z,22.90
2017-12-26T05:44:22.358Z,17.33
2017-12-26T05:45:24.894Z,16.70
2017-12-26T05:46:28.183Z,19.87
2017-12-26T05:47:31.509Z,19.65
2017-12-26T05:48:34.024Z,22.50
2017-12-26T05:49:37.321Z,21.40
2017-12-26T05:50:40.643Z,19.20
2017-12-26T05:51:43.164Z,21.08
2017-12-26T05:52:46.453Z,21.75
2017-12-26T05:53:49.738Z,17.70
2017-12-26T05:54:53.018Z,19.73
2017-12-26T05:55:56.361Z,22.77
2017-12-26T05:56:58.882Z,23.25
2017-12-26T05:58:01.465Z,18.62
2017-12-26T05:59:03.988Z,21.02
2017-12-26T06:00:06.504Z,17.65
2017-12-26T06:01:09.064Z,21.85
2017-12-26T06:02:11.584Z,22.15
2017-12-26T06:03:14.220Z,21.75
2017-12-26T06:04:16.749Z,19.98
2017-12-26T06:05:19.274Z,23.77
2017-12-26T06:06:21.846Z,19.40
2017-12-26T06:07:24.373Z,23.23
2017-12-26T06:08:26.899Z,24.87
2017-12-26T06:09:30.190Z,25.85
2017-12-26T06:10:33.472Z,22.65
2017-12-26T06:11:36.799Z,24.95
2017-12-26T06:12:39.319Z,26.10
2017-12-26T06:13:42.609Z,23.20
2017-12-26T06:14:45.135Z,21.55
2017-12-26T06:15:47.657Z,24.55
2017-12-26T06:16:50.219Z,23.70
2017-12-26T06:17:52.746Z,22.50
2017-12-26T06:18:55.318Z,20.58
2017-12-26T06:19:57.850Z,18.55
2017-12-26T06:21:00.375Z,23.30
2017-12-26T06:22:02.940Z,20.35
2017-12-26T06:23:06.229Z,20.88
2017-12-26T06:24:08.743Z,20.08
2017-12-26T06:25:11.373Z,19.08
2017-12-26T06:26:13.918Z,20.12
2017-12-26T06:27:17.309Z,21.90
2017-12-26T06:28:20.609Z,19.30
2017-12-26T06:29:23.147Z,20.55
2017-12-26T06:30:25.669Z,18.62
2017-12-26T06:31:28.184Z,24.60
2017-12-26T06:32:31.515Z,17.15
2017-12-26T06:33:34.026Z,21.23
2017-12-26T06:34:37.322Z,20.88
2017-12-26T06:35:40.610Z,18.05
2017-12-26T06:36:43.134Z,18.80
2017-12-26T06:37:45.706Z,19.83
2017-12-26T06:38:48.224Z,19.42
2017-12-26T06:39:50.737Z,19.50
2017-12-26T06:40:53.273Z,17.83
2017-12-26T06:41:55.799Z,19.50
2017-12-26T06:42:59.128Z,21.52
2017-12-26T06:44:01.649Z,21.45
2017-12-26T06:45:04.932Z,18.75
2017-12-26T06:46:08.226Z,22.95
2017-12-26T06:47:10.761Z,19.10
2017-12-26T06:48:13.372Z,18.62
2017-12-26T06:49:15.983Z,14.32
2017-12-26T06:50:18.501Z,20.08
2017-12-26T06:51:21.013Z,18.58
2017-12-26T06:52:23.586Z,17.65
2017-12-26T06:53:26.101Z,18.45
2017-12-26T06:54:28.616Z,15.82
2017-12-26T06:55:31.137Z,19.85
2017-12-26T06:56:33.652Z,17.80
2017-12-26T06:57:36.250Z,20.83
2017-12-26T06:58:38.776Z,21.25
2017-12-26T06:59:41.350Z,19.60
2017-12-26T07:00:43.881Z,19.27
2017-12-26T07:01:46.393Z,20.92
2017-12-26T07:02:48.909Z,23.23
2017-12-26T07:03:51.438Z,19.00
2017-12-26T07:04:54.755Z,17.40
2017-12-26T07:05:57.289Z,23.23
2017-12-26T07:07:00.576Z,20.27
2017-12-26T07:08:03.874Z,17.80
2017-12-26T07:09:06.398Z,18.37
2017-12-26T07:10:08.967Z,20.27
2017-12-26T07:11:11.491Z,19.05
2017-12-26T07:12:14.019Z,19.20
2017-12-26T07:13:17.310Z,18.48
2017-12-26T07:14:19.845Z,18.37
2017-12-26T07:15:22.394Z,19.60
2017-12-26T07:16:24.913Z,26.12
2017-12-26T07:17:27.429Z,19.92
2017-12-26T07:18:29.955Z,21.58
2017-12-26T07:19:38.089Z,18.80
2017-12-26T07:22:22.458Z,18.83
2017-12-26T07:23:24.978Z,19.90
2017-12-26T07:24:27.500Z,24.17
2017-12-26T07:25:30.061Z,24.65
2017-12-26T07:26:32.632Z,18.77
2017-12-26T07:27:35.966Z,24.65
2017-12-26T07:28:38.491Z,21.10
2017-12-26T07:29:41.774Z,20.77
2017-12-26T07:30:45.065Z,22.10
2017-12-26T07:31:48.349Z,26.42
2017-12-26T07:32:52.378Z,16.00
2017-12-26T07:33:54.906Z,19.73
2017-12-26T07:34:58.235Z,22.00
2017-12-26T07:36:00.767Z,15.05
2017-12-26T07:37:04.085Z,14.35
2017-12-26T07:38:06.606Z,16.85
2017-12-26T07:39:09.121Z,14.70
2017-12-26T07:40:11.650Z,16.23
2017-12-26T07:41:14.938Z,13.57
2017-12-26T07:42:18.262Z,13.23
2017-12-26T07:43:20.812Z,15.77
2017-12-26T07:44:23.333Z,13.65
2017-12-26T07:45:25.865Z,18.08
2017-12-26T07:46:28.382Z,12.30
2017-12-26T07:47:31.697Z,12.52
2017-12-26T07:48:34.256Z,15.40
2017-12-26T07:49:36.895Z,14.65
2017-12-26T07:50:40.177Z,11.98
2017-12-26T07:51:43.456Z,16.20
2017-12-26T07:52:45.981Z,17.42
2017-12-26T07:53:48.507Z,11.95
2017-12-26T07:54:51.826Z,12.55
2017-12-26T07:55:54.374Z,12.48
2017-12-26T07:56:56.893Z,13.50
2017-12-26T07:57:59.433Z,11.52
2017-12-26T07:59:01.984Z,15.52
2017-12-26T08:00:04.551Z,10.63
2017-12-26T08:01:07.109Z,13.38
2017-12-26T08:02:09.637Z,12.32
2017-12-26T08:03:12.954Z,13.73
2017-12-26T08:04:15.488Z,11.40
2017-12-26T08:05:18.761Z,11.52
2017-12-26T08:06:21.315Z,12.70
2017-12-26T08:07:23.836Z,12.65
2017-12-26T08:08:26.361Z,11.48
2017-12-26T08:09:28.883Z,14.43
2017-12-26T08:10:31.438Z,10.50
2017-12-26T08:11:33.965Z,10.88
2017-12-26T08:12:37.286Z,14.15
2017-12-26T08:13:39.817Z,13.90
2017-12-26T08:14:43.125Z,9.77
2017-12-26T08:15:45.678Z,11.07
2017-12-26T08:16:48.970Z,12.10
2017-12-26T08:17:52.255Z,11.43
2017-12-26T08:18:54.784Z,12.07
2017-12-26T08:19:57.288Z,11.70
2017-12-26T08:20:59.832Z,8.93
2017-12-26T08:22:03.121Z,9.65
2017-12-26T08:23:06.435Z,13.20
2017-12-26T08:24:08.954Z,10.50
2017-12-26T08:25:11.489Z,12.10
2017-12-26T08:26:14.008Z,10.07
2017-12-26T08:27:16.522Z,8.93
2017-12-26T08:28:19.086Z,8.52
2017-12-26T08:29:21.611Z,9.85
2017-12-26T08:30:24.167Z,9.10
2017-12-26T08:31:27.472Z,10.50
2017-12-26T08:32:30.000Z,9.80
2017-12-26T08:33:33.343Z,8.45
2017-12-26T08:34:35.861Z,12.25
2017-12-26T08:35:38.414Z,8.48
2017-12-26T08:36:40.943Z,9.02
2017-12-26T08:37:43.468Z,9.35
2017-12-26T08:38:46.794Z,9.30
2017-12-26T08:39:49.350Z,9.05
2017-12-26T08:40:51.871Z,8.35
2017-12-26T08:41:55.172Z,10.55
2017-12-26T08:42:58.450Z,9.07
2017-12-26T08:44:01.735Z,9.20
2017-12-26T08:45:05.062Z,7.82
2017-12-26T08:46:07.582Z,7.40
2017-12-26T08:47:10.867Z,8.55
2017-12-26T08:48:14.166Z,9.88
2017-12-26T08:49:16.688Z,9.02
2017-12-26T08:50:19.255Z,9.07
2017-12-26T08:51:21.768Z,8.63
2017-12-26T08:52:24.293Z,9.10
2017-12-26T08:53:26.820Z,11.45
2017-12-26T08:54:29.342Z,9.75
2017-12-26T08:55:32.700Z,8.52
2017-12-26T08:56:35.225Z,7.93
2017-12-26T08:57:37.747Z,6.75
2017-12-26T08:58:40.267Z,7.97
2017-12-26T08:59:42.787Z,6.05
2017-12-26T09:00:45.470Z,7.22
2017-12-26T09:01:47.993Z,9.77
2017-12-26T09:02:50.846Z,5.65
2017-12-26T09:03:53.396Z,7.72
2017-12-26T09:04:55.912Z,6.72
2017-12-26T09:05:58.471Z,9.05
2017-12-26T09:07:00.991Z,12.60
2017-12-26T09:08:03.515Z,6.20
2017-12-26T09:09:06.029Z,8.23
2017-12-26T09:10:08.548Z,9.45
2017-12-26T09:11:11.110Z,8.45
2017-12-26T09:12:14.401Z,6.35
2017-12-26T09:13:16.910Z,8.48
2017-12-26T09:14:19.470Z,6.78
2017-12-26T09:15:21.981Z,8.73
2017-12-26T09:16:24.539Z,5.80
2017-12-26T09:17:27.048Z,5.55
2017-12-26T09:18:30.338Z,6.55
2017-12-26T09:19:33.614Z,5.93
2017-12-26T09:20:36.922Z,9.82
2017-12-26T09:21:39.464Z,6.60
2017-12-26T09:22:41.982Z,7.12
2017-12-26T09:23:44.504Z,5.68
2017-12-26T09:24:47.805Z,6.95
2017-12-26T09:25:50.507Z,7.00
2017-12-26T09:26:53.142Z,6.43
2017-12-26T09:27:55.664Z,6.43
2017-12-26T09:28:58.174Z,6.25
2017-12-26T09:30:00.695Z,9.10
2017-12-26T09:31:03.245Z,8.75
2017-12-26T09:32:05.772Z,6.43
2017-12-26T09:33:08.340Z,9.10
2017-12-26T09:34:10.897Z,5.87
2017-12-26T09:35:13.434Z,6.30
2017-12-26T09:36:15.953Z,11.82
2017-12-26T09:37:18.493Z,6.12
2017-12-26T09:38:21.024Z,5.45
2017-12-26T09:39:23.587Z,7.35
2017-12-26T09:40:26.166Z,8.20
2017-12-26T09:41:28.674Z,7.57
2017-12-26T09:42:31.189Z,5.90
2017-12-26T09:43:33.711Z,4.78
2017-12-26T09:44:36.232Z,7.75
2017-12-26T09:45:39.558Z,5.75
2017-12-26T09:46:42.073Z,7.18
2017-12-26T09:47:44.584Z,6.00
2017-12-26T09:48:47.134Z,14.20
2017-12-26T09:49:49.668Z,6.30
2017-12-26T09:50:52.286Z,7.90
2017-12-26T09:51:54.803Z,7.35
2017-12-26T09:52:57.314Z,6.75
2017-12-26T09:53:59.822Z,5.78
2017-12-26T09:55:02.361Z,6.40
2017-12-26T09:56:04.882Z,6.85
2017-12-26T09:57:08.174Z,5.10
2017-12-26T09:58:10.737Z,5.95
2017-12-26T09:59:13.258Z,5.93
2017-12-26T10:00:15.772Z,5.22
2017-12-26T10:01:19.058Z,12.37
2017-12-26T10:02:21.609Z,6.03
2017-12-26T10:03:24.121Z,8.43
2017-12-26T10:04:26.646Z,6.28
2017-12-26T10:05:29.199Z,6.65
2017-12-26T10:06:32.482Z,8.15
2017-12-26T10:07:35.811Z,5.62
2017-12-26T10:08:38.348Z,5.45
2017-12-26T10:09:41.634Z,8.07
2017-12-26T10:10:44.148Z,6.18
2017-12-26T10:11:46.673Z,6.90
2017-12-26T10:12:49.229Z,6.75
2017-12-26T10:13:52.537Z,5.90
2017-12-26T10:14:55.090Z,8.57
2017-12-26T10:15:57.617Z,6.43
2017-12-26T10:17:00.157Z,11.02
2017-12-26T10:18:02.721Z,13.43
2017-12-26T10:19:05.249Z,11.63
2017-12-26T10:20:08.541Z,5.95
2017-12-26T10:21:11.204Z,5.90
2017-12-26T10:22:13.730Z,7.37
2017-12-26T10:23:16.276Z,6.07
2017-12-26T10:24:18.819Z,7.85
2017-12-26T10:25:21.409Z,10.13
2017-12-26T10:26:24.058Z,8.90
2017-12-26T10:27:26.620Z,10.75
2017-12-26T10:28:29.179Z,8.95
2017-12-26T10:29:32.833Z,6.07
2017-12-26T10:30:35.358Z,7.55
2017-12-26T10:31:37.923Z,9.05
2017-12-26T10:32:40.450Z,5.57
2017-12-26T10:33:43.758Z,9.52
2017-12-26T10:34:46.327Z,5.95
2017-12-26T10:35:48.932Z,5.50
2017-12-26T10:36:51.458Z,6.32
2017-12-26T10:37:54.012Z,14.80
2017-12-26T10:38:56.596Z,6.32
2017-12-26T10:39:59.158Z,5.97
2017-12-26T10:41:01.754Z,8.55
2017-12-26T10:42:04.271Z,6.30
2017-12-26T10:43:07.595Z,9.68
2017-12-26T10:44:10.134Z,8.30
2017-12-26T10:45:12.664Z,8.45
2017-12-26T10:46:15.186Z,7.53
2017-12-26T10:47:17.714Z,12.27
2017-12-26T10:48:20.274Z,7.55
2017-12-26T10:49:22.796Z,5.00
2017-12-26T10:50:25.325Z,12.13
2017-12-26T10:51:28.057Z,7.05
2017-12-26T10:52:30.594Z,5.30
2017-12-26T10:53:33.178Z,11.35
2017-12-26T10:54:35.670Z,8.85
2017-12-26T10:55:38.966Z,8.63
2017-12-26T10:56:42.291Z,6.28
2017-12-26T10:57:44.844Z,13.90
2017-12-26T10:58:47.366Z,6.28
2017-12-26T10:59:49.894Z,8.27
2017-12-26T11:00:52.450Z,8.60
2017-12-26T11:01:54.977Z,7.57
2017-12-26T11:02:57.517Z,13.45
2017-12-26T11:04:00.047Z,8.38
2017-12-26T11:05:02.569Z,6.70
2017-12-26T11:06:05.136Z,6.57
2017-12-26T11:07:08.448Z,10.13
2017-12-26T11:08:10.982Z,10.10
2017-12-26T11:09:14.283Z,11.52
2017-12-26T11:10:16.839Z,10.57
2017-12-26T11:11:20.167Z,12.50
2017-12-26T11:12:22.689Z,8.02
2017-12-26T11:13:25.979Z,10.43
2017-12-26T11:14:29.262Z,13.15
2017-12-26T11:15:32.549Z,7.37
2017-12-26T11:16:35.893Z,10.63
2017-12-26T11:17:38.423Z,10.00
2017-12-26T11:18:40.950Z,6.55
2017-12-26T11:19:44.238Z,8.20
2017-12-26T11:20:46.790Z,4.82
2017-12-26T11:21:49.354Z,6.03
2017-12-26T11:22:52.429Z,6.12
2017-12-26T11:23:54.959Z,4.85
2017-12-26T11:24:57.490Z,4.25
2017-12-26T11:26:00.812Z,2.80
2017-12-26T11:27:03.371Z,3.65
2017-12-26T11:28:05.894Z,3.20
2017-12-26T11:29:08.416Z,3.33
2017-12-26T11:30:10.946Z,3.80
2017-12-26T11:31:14.276Z,2.17
2017-12-26T11:32:16.796Z,3.67
2017-12-26T11:33:19.330Z,2.90
2017-12-26T11:34:21.861Z,1.83
2017-12-26T11:35:24.391Z,1.73
2017-12-26T11:36:27.723Z,1.70
2017-12-26T11:37:30.243Z,1.55
2017-12-26T11:38:32.950Z,2.33
2017-12-26T11:39:35.465Z,1.90
2017-12-26T11:40:37.991Z,1.92
2017-12-26T11:41:40.556Z,1.95
2017-12-26T11:42:43.079Z,2.20
2017-12-26T11:43:45.617Z,1.50
2017-12-26T11:44:48.233Z,1.90
2017-12-26T11:45:50.798Z,1.75
2017-12-26T11:46:53.379Z,1.67
2017-12-26T11:47:55.906Z,1.98
2017-12-26T11:48:59.206Z,1.85
2017-12-26T11:50:01.740Z,1.65
2017-12-26T11:51:05.042Z,2.42
2017-12-26T11:52:08.368Z,1.92
2017-12-26T11:53:10.978Z,2.45
2017-12-26T11:54:13.518Z,1.40
2017-12-26T11:55:16.053Z,0.90
2017-12-26T11:56:18.579Z,1.25
2017-12-26T11:57:21.101Z,0.90
2017-12-26T11:58:23.670Z,1.25
2017-12-26T11:59:26.194Z,1.10
2017-12-26T12:00:29.490Z,1.12
2017-12-26T12:01:32.030Z,0.80
2017-12-26T12:02:35.325Z,0.98
2017-12-26T12:03:38.655Z,0.80
2017-12-26T12:04:41.173Z,0.80
2017-12-26T12:05:44.462Z,0.90
2017-12-26T12:06:47.755Z,1.70
2017-12-26T12:07:50.290Z,0.90
2017-12-26T12:08:52.858Z,0.82
2017-12-26T12:09:56.154Z,0.88
2017-12-26T12:10:59.672Z,1.10
2017-12-26T12:12:02.212Z,1.10
2017-12-26T12:13:05.498Z,1.55
2017-12-26T12:14:08.834Z,0.90
2017-12-26T12:15:11.395Z,0.90
2017-12-26T12:16:13.954Z,1.10
2017-12-26T12:17:16.478Z,1.05
2017-12-26T12:18:19.763Z,0.80
2017-12-26T12:19:23.066Z,1.15
2017-12-26T12:20:25.641Z,0.90
2017-12-26T12:21:28.178Z,1.08
2017-12-26T12:22:31.461Z,0.80
2017-12-26T12:23:34.748Z,0.75
2017-12-26T12:24:38.074Z,0.95
2017-12-26T12:25:40.627Z,1.40
2017-12-26T12:26:43.294Z,1.10
2017-12-26T12:27:45.844Z,1.00
2017-12-26T12:28:48.387Z,2.40
2017-12-26T12:29:50.914Z,0.70
2017-12-26T12:30:53.430Z,1.58
2017-12-26T12:31:56.781Z,1.30
2017-12-26T12:32:59.302Z,1.00
2017-12-26T12:34:02.587Z,0.90
2017-12-26T12:35:05.191Z,1.30
2017-12-26T12:36:07.792Z,1.40
2017-12-26T12:37:11.143Z,3.35
2017-12-26T12:38:13.679Z,0.90
2017-12-26T12:39:16.214Z,0.90
2017-12-26T12:40:19.505Z,0.95
2017-12-26T12:41:22.794Z,2.55
2017-12-26T12:42:25.380Z,1.00
2017-12-26T12:43:27.899Z,3.90
2017-12-26T12:44:30.418Z,2.03
2017-12-26T12:45:32.942Z,3.55
2017-12-26T12:46:36.226Z,1.20
2017-12-26T12:47:39.542Z,1.05
2017-12-26T12:48:42.059Z,1.17
2017-12-26T12:49:44.603Z,3.47
2017-12-26T12:50:47.130Z,2.75
2017-12-26T12:51:49.712Z,1.10
2017-12-26T12:52:52.272Z,2.15
2017-12-26T12:53:54.797Z,1.10
2017-12-26T12:54:58.104Z,1.23
2017-12-26T12:56:01.612Z,1.20
2017-12-26T12:57:04.217Z,1.10
2017-12-26T12:58:06.748Z,1.33
2017-12-26T12:59:09.274Z,1.20
2017-12-26T13:00:12.575Z,0.90
2017-12-26T13:01:15.881Z,1.85
2017-12-26T13:02:18.446Z,1.55
2017-12-26T13:03:20.976Z,1.20
2017-12-26T13:04:23.505Z,1.33
2017-12-26T13:05:26.031Z,3.83
2017-12-26T13:06:28.554Z,0.80
2017-12-26T13:07:31.118Z,1.10
2017-12-26T13:08:33.645Z,1.17
2017-12-26T13:09:36.175Z,1.45
2017-12-26T13:10:39.473Z,1.27
2017-12-26T13:11:42.762Z,1.40
2017-12-26T13:12:45.322Z,1.20
2017-12-26T13:13:48.618Z,1.02
2017-12-26T13:14:51.178Z,1.02
2017-12-26T13:15:53.726Z,1.40
2017-12-26T13:16:57.080Z,1.15
2017-12-26T13:17:59.712Z,1.10
2017-12-26T13:19:02.236Z,0.93
2017-12-26T13:20:04.754Z,1.75
2017-12-26T13:21:07.275Z,1.35
2017-12-26T13:22:10.610Z,0.80
2017-12-26T13:23:13.135Z,2.28
2017-12-26T13:24:16.431Z,1.23
2017-12-26T13:25:18.951Z,1.35
2017-12-26T13:26:21.478Z,3.67
2017-12-26T13:27:24.026Z,0.93
2017-12-26T13:28:26.603Z,0.70
2017-12-26T13:29:29.142Z,2.08
2017-12-26T13:30:32.428Z,0.88
2017-12-26T13:31:35.710Z,0.90
2017-12-26T13:32:38.998Z,1.15
2017-12-26T13:33:42.337Z,1.17
2017-12-26T13:34:44.858Z,3.67
2017-12-26T13:35:47.369Z,1.08
2017-12-26T13:36:49.887Z,1.20
2017-12-26T13:37:53.169Z,3.45
2017-12-26T13:38:56.497Z,0.62
2017-12-26T13:39:59.010Z,1.05
2017-12-26T13:41:02.298Z,2.47